• Join FlightAware (Why Join?)
  • Login
  • US Flag 
08:46PM EDT


 

Airport Tracker/Info


-or-


 

Live Flight TrackerFlight Track Log ✈ F-GLZS ✈ 23-Apr-2013 ✈ LFPG / CDG - HECA / CAI

Flight Track Log - Related Links

Times and Time Zones

All times are in EDT time to prevent confusion due to time zone crossing. See the F-GLZS flight status page for this flight to view local times or setup timezone preferences in your user account.

Time Position Orientation Groundspeed Altitude Reporting Facility
EDT Latitude Longitude Course Direction KTS MPH feet Rate Location/Type
08:12AM 48.7189 3.3097 120° Southeast  Level Estimated
08:13AM 48.6595 3.4606 121° Southeast  Level Estimated
08:21AM 49.0220 2.5388 262° West 146 168 300  Level FlightAware ADS-B
08:21AM 49.0215 2.5305 265° West 145 167 500 1,740 Climbing FlightAware ADS-B
08:21AM 49.0211 2.5213 266° West 142 163 800 1,980 Climbing FlightAware ADS-B
08:21AM 49.0203 2.5066 265° West 138 159 1,300 1,680 Climbing FlightAware ADS-B
08:21AM 49.0199 2.4978 266° West 138 159 1,500 1,020 Climbing FlightAware ADS-B
08:22AM 49.0196 2.4906 266° West 142 163 1,600 1,260 Climbing FlightAware ADS-B
08:22AM 49.0188 2.4741 266° West 148 170 2,000 1,680 Climbing FlightAware ADS-B
08:22AM 49.0181 2.4581 266° West 142 163 2,500 1,860 Climbing FlightAware ADS-B
08:22AM 49.0177 2.4514 265° West 141 162 2,700 1,500 Climbing FlightAware ADS-B
08:22AM 49.0172 2.4419 265° West 140 161 2,900 1,500 Climbing FlightAware ADS-B
08:23AM 49.0166 2.4323 265° West 140 161 3,200 1,200 Climbing FlightAware ADS-B
08:23AM 49.0169 2.4273 275° West 143 165 3,200 720 Level FlightAware ADS-B
08:23AM 49.0175 2.4240 285° West 150 173 3,300 660 Climbing FlightAware ADS-B
08:23AM 49.0191 2.4186 295° West 158 182 3,300  Level FlightAware ADS-B
08:23AM 49.0208 2.4149 305° West 166 191 3,300 660 Level FlightAware ADS-B
08:23AM 49.0237 2.4104 314° West 173 199 3,400 1,500 Climbing FlightAware ADS-B
08:23AM 49.0258 2.4078 321° Northwest 175 201 3,500 1,200 Climbing FlightAware ADS-B
08:23AM 49.0336 2.3988 323° Northwest 183 211 3,700 600 Climbing FlightAware ADS-B
08:23AM 49.0380 2.3939 324° Northwest 191 220 3,700 360 Level FlightAware ADS-B
08:23AM 49.0449 2.3871 327° Northwest 203 234 3,800 840 Climbing FlightAware ADS-B
08:24AM 49.0555 2.3774 329° Northwest 219 252 4,000 900 Climbing FlightAware ADS-B
08:24AM 49.0673 2.3668 329° Northwest 238 274 4,200 1,500 Climbing FlightAware ADS-B
08:24AM 49.0782 2.3571 330° Northwest 246 283 4,600 2,100 Climbing FlightAware ADS-B
08:24AM 49.0814 2.3551 338° Northwest 249 287 4,700 1,980 Climbing FlightAware ADS-B
08:24AM 49.0849 2.3538 347° North 252 290 4,800 2,520 Climbing FlightAware ADS-B
08:24AM 49.0892 2.3534 356° North 252 290 5,000 3,420 Climbing FlightAware ADS-B
08:24AM 49.0931 2.3540 North 253 291 5,200 3,420 Climbing FlightAware ADS-B
08:24AM 49.0979 2.3559 15° North 256 295 5,400 2,220 Climbing FlightAware ADS-B
08:24AM 49.1012 2.3582 24° Northeast 260 299 5,500 1,680 Climbing FlightAware ADS-B
08:24AM 49.1052 2.3620 32° Northeast 264 304 5,600 2,220 Climbing FlightAware ADS-B
08:24AM 49.1096 2.3683 43° Northeast 271 312 5,800 1,980 Climbing FlightAware ADS-B
08:25AM 49.1125 2.3741 53° Northeast 275 316 5,900 1,980 Climbing FlightAware ADS-B
08:25AM 49.1156 2.3831 62° Northeast 277 319 6,100 2,640 Climbing FlightAware ADS-B
08:25AM 49.1170 2.3893 71° East 281 323 6,300 3,000 Climbing FlightAware ADS-B
08:25AM 49.1187 2.4021 79° East 283 326 6,600 3,000 Climbing FlightAware ADS-B
08:25AM 49.1190 2.4143 88° East 285 328 6,900 2,700 Climbing FlightAware ADS-B
08:25AM 49.1181 2.4239 98° East 288 331 7,100 3,000 Climbing FlightAware ADS-B
08:25AM 49.1166 2.4329 104° East 288 331 7,400 3,420 Climbing FlightAware ADS-B
08:25AM 49.1126 2.4514 108° East 287 330 7,900 2,760 Climbing FlightAware ADS-B
08:25AM 49.1104 2.4627 107° East 289 333 8,100 1,800 Climbing FlightAware ADS-B
08:25AM 49.1082 2.4760 104° East 293 337 8,300 2,400 Climbing FlightAware ADS-B
08:26AM 49.1037 2.5071 102° East 295 339 9,000 2,460 Climbing FlightAware ADS-B
08:26AM 49.0991 2.5385 103° East 300 345 9,600 1,920 Climbing FlightAware ADS-B
08:26AM 49.0896 2.6029 103° East 323 372 10,500 1,380 Climbing FlightAware ADS-B
08:27AM 49.0787 2.6732 103° East 357 411 11,000 1,500 Climbing FlightAware ADS-B
08:28AM 49.0625 2.7764 103° East 361 415 12,300 2,160 Climbing FlightAware ADS-B
08:28AM 49.0497 2.8572 104° East 384 442 13,600 2,340 Climbing FlightAware ADS-B
08:29AM 49.0392 2.9235 104° East 392 451 14,500 2,160 Climbing FlightAware ADS-B
08:29AM 49.0190 3.0190 108° East 398 458 15,900 2,340 Climbing FlightAware
08:30AM 48.9920 3.1420 108° East 403 464 17,800 2,400 Climbing FlightAware
08:30AM 48.9825 3.1883 107° East 407 468 18,400 1,860 Climbing FlightAware ADS-B
08:31AM 48.9450 3.3600 108° East 425 489 20,300 1,740 Climbing FlightAware
08:32AM 48.9170 3.4900 108° East 439 505 21,600 1,680 Climbing FlightAware
08:33AM 48.8940 3.5930 109° East 442 509 22,700 1,800 Climbing FlightAware
08:33AM 48.8660 3.7200 108° East 447 514 24,000 1,740 Climbing FlightAware
08:34AM 48.8360 3.8520 109° East 453 521 25,200 1,440 Climbing FlightAware
08:35AM 48.8110 3.9640 109° East 458 527 26,100 1,380 Climbing FlightAware
08:36AM 48.7760 4.1190 109° East 463 533 27,300 1,320 Climbing FlightAware
08:38AM 48.6600 4.3995 122° Southeast  Level Estimated
08:39AM 48.5982 4.5479 122° Southeast  Level Estimated
08:40AM 48.5362 4.6959 122° Southeast  Level Estimated
08:40AM 48.5650 5.0250 122° Southeast 481 554 33,500  Level FlightAware
08:41AM 48.4740 4.8436 122° Southeast  Level Estimated
08:41AM 48.5290 5.1760 110° East 480 552 34,400  Level FlightAware
08:44AM 48.3829 5.5125 123° Southeast  Level Estimated
08:44AM 48.3800 5.7900 123° Southeast 474 545 37,000  Level FlightAware
08:45AM 48.3191 5.6581 123° Southeast  Level Estimated
08:46AM 48.3310 5.9870 110° East 476 548 37,000  Level FlightAware
08:46AM 48.2950 6.1310 111° Southeast 486 559 37,000  Level FlightAware
08:47AM 48.2630 6.2590 111° Southeast 488 562 37,000 240 Level FlightAware
08:50AM 48.0960 6.6250 124° Southeast  Level Estimated
08:50AM 48.0990 6.9030 125° Southeast 480 552 38,000  Level FlightAware
08:51AM 48.0303 6.7678 125° Southeast  Level Estimated
08:52AM 48.0150 7.2260 111° Southeast 483 556 38,000  Level FlightAware
08:53AM 47.9870 7.3310 112° Southeast 482 555 38,000  Level FlightAware
08:53AM 47.9650 7.4180 111° Southeast 483 556 38,000  Level FlightAware
08:54AM 47.9300 7.5480 112° Southeast 484 557 38,000  Level FlightAware
08:55AM 47.8920 7.6910 112° Southeast 486 559 38,000  Level FlightAware
08:55AM 47.8590 7.8150 112° Southeast 486 559 38,000  Level FlightAware
08:58AM 47.7134 8.1126 126° Southeast  Level Estimated
08:59AM 47.6449 8.2515 126° Southeast  Level Estimated
09:00AM 47.5762 8.3901 126° Southeast  Level Estimated
09:01AM 47.5073 8.5283 126° Southeast  Level Estimated
09:01AM 47.6040 8.8860 126° Southeast 471 542 38,000  Level FlightAware
09:02AM 47.5590 9.1180 106° East 470 541 38,000  Level FlightAware
09:03AM 47.5340 9.2500 106° East 468 539 38,000  Level FlightAware
09:04AM 47.5110 9.3470 109° East 473 544 38,000  Level FlightAware
09:05AM 47.4460 9.5400 116° Southeast 463 533 38,000  Level FlightAware
09:05AM 47.4080 9.6490 117° Southeast 462 532 38,000  Level FlightAware
09:06AM 47.3730 9.7500 117° Southeast 461 531 38,000  Level FlightAware
09:07AM 47.3240 9.8930 117° Southeast 464 534 38,000  Level FlightAware
09:08AM 47.2840 10.0060 118° Southeast 465 535 38,000 -420 Level FlightAware
09:08AM 47.2500 10.1040 117° Southeast 471 542 37,500 -720 Descending FlightAware
09:09AM 47.1940 10.2650 117° Southeast 476 548 37,000 -300 Descending FlightAware
09:10AM 47.1530 10.3800 118° Southeast 476 548 37,000  Level FlightAware
09:11AM 47.0970 10.5360 118° Southeast 475 547 37,000  Level FlightAware
09:12AM 47.0310 10.6790 124° Southeast 495 570 37,000  Level FlightAware
09:12AM 46.9630 10.7450 146° Southeast 515 593 37,000  Level FlightAware
09:13AM 46.8450 10.8290 154° Southeast 517 595 37,000  Level FlightAware
09:14AM 46.7600 10.8890 154° Southeast 504 580 37,000  Level FlightAware
09:14AM 46.6650 10.9570 154° Southeast 502 578 37,000  Level FlightAware
09:16AM 46.4850 11.0860 154° Southeast 504 580 37,000  Level FlightAware
09:17AM 46.3050 11.2130 154° Southeast 503 579 37,000  Level FlightAware
09:18AM 46.2070 11.2810 154° Southeast 504 580 37,000  Level FlightAware
09:19AM 46.0500 11.3910 154° Southeast 500 575 37,000  Level FlightAware
09:21AM 45.8620 11.5270 153° Southeast 484 557 37,000  Level FlightAware
09:22AM 45.7330 11.6570 145° Southeast 477 549 37,000  Level FlightAware
09:22AM 45.6700 11.7200 145° Southeast 473 544 37,000  Level FlightAware
09:23AM 45.5830 11.8080 145° Southeast 467 537 37,000  Level FlightAware
09:24AM 45.5100 11.9330 130° Southeast 439 505 37,000  Level FlightAware
09:26AM 45.4220 12.1430 121° Southeast 427 491 37,000  Level FlightAware
09:26AM 45.3900 12.2190 121° Southeast 425 489 37,000  Level FlightAware
09:27AM 45.3430 12.3320 121° Southeast 423 487 37,000  Level FlightAware
09:28AM 45.2810 12.4770 121° Southeast 421 484 37,000  Level FlightAware
09:29AM 45.2390 12.5750 121° Southeast 426 490 37,000  Level FlightAware
09:29AM 45.2030 12.6600 121° Southeast 432 497 37,000  Level FlightAware
09:30AM 45.1250 12.8420 121° Southeast 436 502 37,000  Level FlightAware
09:31AM 45.0880 12.9270 122° Southeast 438 504 37,000  Level FlightAware
09:32AM 45.0470 13.0220 121° Southeast 439 505 37,000  Level FlightAware
09:32AM 45.0050 13.1210 121° Southeast 441 507 37,000  Level FlightAware
09:34AM 44.9040 13.3500 122° Southeast 454 522 37,000  Level FlightAware
09:35AM 44.8480 13.4790 121° Southeast 458 527 37,000  Level FlightAware
09:36AM 44.7260 13.7470 130° Southeast 446 513 37,000  Level FlightAware
09:37AM 44.7148 13.7008 130° Southeast  Level Estimated
09:37AM 44.6730 13.8550 125° Southeast 446 513 37,000  Level FlightAware
09:38AM 44.6420 13.9210 123° Southeast 446 513 37,000  Level FlightAware
09:39AM 44.5650 14.0800 124° Southeast 452 520 37,000  Level FlightAware
09:40AM 44.4760 14.2610 125° Southeast 453 521 37,000  Level FlightAware
09:41AM 44.4120 14.3920 124° Southeast 459 528 37,000  Level FlightAware
09:42AM 44.3650 14.4880 124° Southeast 465 535 37,000  Level FlightAware
09:42AM 44.3100 14.5970 125° Southeast 468 539 37,000  Level FlightAware
09:43AM 44.2690 14.6810 124° Southeast 467 537 37,000  Level FlightAware
09:44AM 44.2190 14.7820 125° Southeast 464 534 37,000  Level FlightAware
09:44AM 44.1640 14.8900 125° Southeast 463 533 37,000  Level FlightAware
09:45AM 44.1060 15.0070 125° Southeast 474 545 37,000  Level FlightAware
09:46AM 44.0650 15.0890 125° Southeast 476 548 37,000  Level FlightAware
09:46AM 44.0050 15.2070 125° Southeast 473 544 37,000  Level FlightAware
09:47AM 43.9670 15.2830 125° Southeast 465 535 37,000  Level FlightAware
09:48AM 43.8990 15.4160 125° Southeast 460 529 37,000  Level FlightAware
09:49AM 43.8440 15.5230 125° Southeast 463 533 37,000  Level FlightAware
09:49AM 43.7930 15.6230 125° Southeast 468 539 37,000  Level FlightAware
09:50AM 43.7430 15.7200 125° Southeast 459 528 37,000  Level FlightAware
09:51AM 43.6930 15.8170 125° Southeast 457 526 37,000  Level FlightAware
09:51AM 43.6380 15.9230 126° Southeast 451 519 37,000  Level FlightAware
09:52AM 43.5840 16.0280 125° Southeast 450 518 37,000  Level FlightAware
09:53AM 43.5370 16.1180 126° Southeast 449 517 37,000  Level FlightAware
09:53AM 43.4880 16.2110 126° Southeast 446 513 37,000  Level FlightAware
09:54AM 43.4320 16.3180 126° Southeast 448 516 37,000  Level FlightAware
09:55AM 43.3830 16.4110 126° Southeast 449 517 37,000  Level FlightAware
09:56AM 43.3280 16.5150 126° Southeast 466 536 37,000  Level FlightAware
09:56AM 43.2770 16.6110 126° Southeast 469 540 37,000  Level FlightAware
09:57AM 43.2240 16.7100 126° Southeast 470 541 37,000  Level FlightAware
09:58AM 43.1680 16.8160 126° Southeast 471 542 37,000  Level FlightAware
09:58AM 43.1160 16.9120 127° Southeast 469 540 37,000  Level FlightAware
09:59AM 43.0640 17.0090 126° Southeast 471 542 37,000  Level FlightAware
10:00AM 43.0040 17.1200 126° Southeast 474 545 37,000  Level FlightAware
10:00AM 42.9530 17.2160 126° Southeast 477 549 37,000  Level FlightAware
10:01AM 42.8940 17.3230 127° Southeast 484 557 37,000  Level FlightAware
10:02AM 42.8400 17.4230 126° Southeast 484 557 37,000  Level FlightAware
10:03AM 42.7740 17.5430 127° Southeast 474 545 37,000  Level FlightAware
10:03AM 42.7230 17.6360 127° Southeast 474 545 37,000  Level FlightAware
10:04AM 42.6730 17.7270 127° Southeast 475 547 37,000  Level FlightAware
10:05AM 42.6110 17.8390 127° Southeast 476 548 37,000  Level FlightAware
10:05AM 42.5580 17.9350 127° Southeast 479 551 37,000  Level FlightAware
10:06AM 42.5070 18.0280 127° Southeast 480 552 37,000  Level FlightAware
10:07AM 42.4440 18.1410 127° Southeast 481 554 37,000  Level FlightAware
10:07AM 42.3910 18.2340 128° Southeast 484 557 37,000  Level FlightAware
10:08AM 42.3330 18.3380 127° Southeast 489 563 37,000  Level FlightAware
10:09AM 42.2810 18.4310 127° Southeast 488 562 37,000  Level FlightAware
10:10AM 42.2210 18.5370 127° Southeast 488 562 37,000  Level FlightAware
10:10AM 42.1620 18.6410 127° Southeast 488 562 37,000  Level FlightAware
10:11AM 42.1030 18.7440 128° Southeast 490 564 37,000  Level FlightAware
10:12AM 42.0420 18.8510 127° Southeast 492 566 37,000  Level FlightAware
10:12AM 41.9940 18.9360 127° Southeast 494 568 37,000  Level FlightAware
10:13AM 41.9230 19.0590 128° Southeast 494 568 37,000  Level FlightAware
10:14AM 41.8740 19.1440 128° Southeast 495 570 37,000  Level FlightAware
10:14AM 41.8100 19.2530 128° Southeast 493 567 37,000 300 Level FlightAware
10:15AM 41.7420 19.3490 133° Southeast 485 558 37,500 660 Climbing FlightAware
10:16AM 41.6790 19.4310 136° Southeast 487 560 38,000 600 Climbing FlightAware
10:17AM 41.6140 19.5140 136° Southeast 492 566 38,300 600 Climbing FlightAware
10:17AM 41.5370 19.6130 136° Southeast 489 563 38,900 480 Climbing FlightAware
10:18AM 41.4720 19.6960 136° Southeast 483 556 39,000  Climbing FlightAware
10:21AM 41.2528 19.9723 136° Southeast  Level Estimated
10:21AM 41.1330 20.1230 137° Southeast 483 556 39,000  Level FlightAware
10:22AM 41.1667 20.0802 137° Southeast  Level Estimated
10:22AM 41.0680 20.2040 137° Southeast 482 555 39,000  Level FlightAware
10:23AM 40.9980 20.2910 137° Southeast 482 555 39,000  Level FlightAware
10:24AM 40.9310 20.3740 137° Southeast 482 555 39,000  Level FlightAware
10:24AM 40.8560 20.4670 137° Southeast 483 556 39,000  Level FlightAware
10:25AM 40.7910 20.5470 137° Southeast 486 559 39,000  Level FlightAware
10:26AM 40.7260 20.6260 137° Southeast 488 562 39,000  Level FlightAware
10:26AM 40.6520 20.7180 137° Southeast 490 564 39,000  Level FlightAware
10:27AM 40.5940 20.7880 137° Southeast 490 564 39,000  Level FlightAware
10:28AM 40.4490 20.9640 137° Southeast 484 557 39,000  Level FlightAware
10:29AM 40.3810 21.0480 137° Southeast 493 567 39,000  Level FlightAware
10:30AM 40.3040 21.1410 137° Southeast 501 577 39,000  Level FlightAware
10:31AM 40.2350 21.2250 137° Southeast 501 577 39,000  Level FlightAware
10:31AM 40.1600 21.3150 137° Southeast 501 577 39,000  Level FlightAware
10:32AM 40.0920 21.3970 137° Southeast 501 577 39,000  Level FlightAware
10:33AM 40.0150 21.4890 138° Southeast 501 577 39,000  Level FlightAware
10:33AM 39.9470 21.5710 137° Southeast 502 578 39,000  Level FlightAware
10:34AM 39.8790 21.6520 138° Southeast 501 577 39,000  Level FlightAware
10:35AM 39.8020 21.7440 137° Southeast 501 577 39,000  Level FlightAware
10:35AM 39.7330 21.8250 138° Southeast 502 578 39,000  Level FlightAware
10:36AM 39.6650 21.9060 137° Southeast 502 578 39,000  Level FlightAware
10:37AM 39.5880 21.9980 137° Southeast 502 578 39,000  Level FlightAware
10:38AM 39.5190 22.0780 138° Southeast 504 580 39,000  Level FlightAware
10:38AM 39.4410 22.1700 138° Southeast 505 581 39,000  Level FlightAware
10:39AM 39.3720 22.2510 138° Southeast 502 578 39,000  Level FlightAware
10:40AM 39.2950 22.3410 138° Southeast 499 574 39,000  Level FlightAware
10:40AM 39.2260 22.4210 138° Southeast 500 575 39,000  Level FlightAware
10:41AM 39.1570 22.5000 138° Southeast 500 575 39,000  Level FlightAware
10:42AM 39.0800 22.5900 138° Southeast 502 578 39,000  Level FlightAware
10:42AM 39.0110 22.6690 138° Southeast 500 575 39,000  Level FlightAware
10:43AM 38.9420 22.7490 138° Southeast 499 574 39,000  Level FlightAware
10:44AM 38.8650 22.8370 138° Southeast 497 572 39,000  Level FlightAware
10:45AM 38.8030 22.9080 138° Southeast 497 572 39,000  Level FlightAware
10:45AM 38.7450 22.9750 138° Southeast 497 572 39,000  Level FlightAware
10:46AM 38.6870 23.0420 138° Southeast 497 572 39,000  Level FlightAware
10:47AM 38.6290 23.1090 138° Southeast 497 572 39,000  Level FlightAware
10:47AM 38.5560 23.1930 138° Southeast 497 572 39,000  Level FlightAware
10:48AM 38.4980 23.2600 138° Southeast 497 572 39,000  Level FlightAware
10:49AM 38.4260 23.3430 138° Southeast 497 572 39,000  Level FlightAware
10:50AM 38.3680 23.4100 138° Southeast 497 572 39,000  Level FlightAware
10:50AM 38.3100 23.4770 138° Southeast 497 572 39,000  Level FlightAware
10:51AM 38.2510 23.5430 139° Southeast 497 572 39,000  Level FlightAware
10:52AM 38.1930 23.6100 138° Southeast 497 572 39,000  Level FlightAware
10:52AM 38.1350 23.6760 138° Southeast 497 572 39,000  Level FlightAware
10:53AM 38.0630 23.7590 138° Southeast 497 572 39,000  Level FlightAware
10:54AM 38.0050 23.8260 138° Southeast 497 572 39,000  Level FlightAware
10:56AM 37.8448 24.0006 139° Southeast  Level Estimated
10:57AM 37.7557 24.0972 139° Southeast  Level Estimated
10:58AM 37.6665 24.1936 139° Southeast  Level Estimated
10:59AM 37.5772 24.2898 139° Southeast  Level Estimated
11:00AM 37.4878 24.3858 140° Southeast  Level Estimated
11:01AM 37.3984 24.4815 140° Southeast  Level Estimated
11:02AM 37.3089 24.5770 140° Southeast  Level Estimated
11:03AM 37.2193 24.6723 140° Southeast  Level Estimated
11:04AM 37.1296 24.7673 140° Southeast  Level Estimated
11:04AM 36.7720 25.2780 140° Southeast 527 606 39,000  Level FlightAware
11:05AM 36.7020 25.3630 136° Southeast 527 606 39,000  Level FlightAware
11:05AM 36.6430 25.4350 136° Southeast 527 606 39,000  Level FlightAware
11:06AM 36.5680 25.5240 136° Southeast 527 606 39,000  Level FlightAware
11:07AM 36.4680 25.6420 136° Southeast 528 608 39,000  Level FlightAware
11:07AM 36.4100 25.7120 136° Southeast 528 608 39,000  Level FlightAware
11:08AM 36.3330 25.8010 137° Southeast 529 609 39,000  Level FlightAware
11:09AM 36.2430 25.9070 136° Southeast 529 609 39,000  Level FlightAware
11:10AM 36.1610 26.0030 137° Southeast 529 609 39,000  Level FlightAware
11:10AM 36.0880 26.0890 136° Southeast 532 612 39,000  Level FlightAware
11:11AM 36.0160 26.1720 137° Southeast 534 615 39,000  Level FlightAware
11:12AM 35.9420 26.2610 136° Southeast 536 617 39,000  Level FlightAware
11:12AM 35.8810 26.3330 136° Southeast 536 617 39,000  Level FlightAware
11:13AM 35.7730 26.4540 138° Southeast 540 621 39,000  Level FlightAware
11:14AM 35.7020 26.5400 135° Southeast 540 621 39,000  Level FlightAware
11:15AM 35.6400 26.6120 137° Southeast 540 621 39,000  Level FlightAware
11:15AM 35.5790 26.6850 136° Southeast 540 621 39,000  Level FlightAware
11:16AM 35.5030 26.7760 136° Southeast 540 621 39,000  Level FlightAware
11:17AM 35.4420 26.8480 136° Southeast 540 621 39,000  Level FlightAware
11:17AM 35.3810 26.9200 136° Southeast 540 621 39,000  Level FlightAware
11:18AM 35.3200 26.9930 136° Southeast 540 621 39,000  Level FlightAware
11:19AM 35.2590 27.0650 136° Southeast 540 621 39,000  Level FlightAware
11:20AM 35.1820 27.1550 136° Southeast 540 621 39,000  Level FlightAware
11:20AM 35.1210 27.2270 136° Southeast 540 621 39,000  Level FlightAware
11:21AM 35.0600 27.3000 136° Southeast 540 621 39,000  Level FlightAware
11:22AM 34.9990 27.3720 136° Southeast 540 621 39,000  Level FlightAware
11:22AM 34.9230 27.4620 136° Southeast 540 621 39,000  Level FlightAware
11:23AM 34.8610 27.5340 136° Southeast 540 621 39,000  Level FlightAware
11:26AM 34.6335 27.7320 144° Southeast  Level Estimated
11:27AM 34.5379 27.8148 144° Southeast  Level Estimated
11:28AM 34.4423 27.8974 145° Southeast  Level Estimated
11:29AM 34.3466 27.9798 145° Southeast  Level Estimated
11:30AM 34.2509 28.0620 145° Southeast  Level Estimated
11:31AM 34.1551 28.1440 145° Southeast  Level Estimated
11:32AM 34.0593 28.2258 145° Southeast  Level Estimated
11:33AM 33.9634 28.3075 145° Southeast  Level Estimated
11:34AM 33.8675 28.3889 145° Southeast  Level Estimated
11:35AM 33.7715 28.4702 145° Southeast  Level Estimated
11:36AM 33.6754 28.5513 145° Southeast  Level Estimated
11:37AM 33.5793 28.6322 145° Southeast  Level Estimated
11:38AM 33.4832 28.7129 145° Southeast  Level Estimated
11:39AM 33.3870 28.7935 145° Southeast  Level Estimated
11:40AM 33.2907 28.8739 145° Southeast  Level Estimated
11:41AM 33.1944 28.9541 145° Southeast  Level Estimated
11:42AM 33.0980 29.0341 145° Southeast  Level Estimated
11:43AM 33.0016 29.1140 145° Southeast  Level Estimated
11:44AM 32.9052 29.1936 145° Southeast  Level Estimated
11:45AM 32.8087 29.2731 145° Southeast  Level Estimated
11:46AM 32.7121 29.3524 145° Southeast  Level Estimated
11:47AM 32.6155 29.4316 145° Southeast  Level Estimated
11:48AM 32.5188 29.5106 145° Southeast  Level Estimated
11:48AM 31.9680 30.5060 145° Southeast 514 592 39,000  Level FlightAware
11:49AM 31.8940 30.5760 141° Southeast 515 593 39,000  Level FlightAware
11:49AM 31.8310 30.6360 141° Southeast 515 593 39,000  Level FlightAware
11:50AM 31.7680 30.6960 141° Southeast 515 593 39,000 -2,220 Level FlightAware
11:51AM 31.6690 30.7840 143° Southeast 517 595 36,100 -3,780 Descending FlightAware
11:51AM 31.5610 30.8560 150° Southeast 496 571 33,400 -1,920 Descending FlightAware
11:52AM 31.4920 30.8870 159° South 496 571 33,400  Level FlightAware
11:53AM 31.4010 30.9280 159° South 496 571 33,400  Level FlightAware
11:53AM 31.3280 30.9610 159° South 496 571 33,400  Level FlightAware
11:54AM 31.2550 30.9940 159° South 496 571 33,400  Level FlightAware
11:55AM 31.1830 31.0260 159° South 496 571 33,400  Level FlightAware
11:55AM 31.1100 31.0590 159° South 496 571 33,400  Level FlightAware
11:56AM 31.0190 31.1000 159° South 496 571 33,400  Level FlightAware
11:57AM 30.9460 31.1320 159° South 496 571 33,400  Level FlightAware
11:58AM 30.8730 31.1650 159° South 496 571 33,400  Level FlightAware
11:58AM 30.8000 31.1980 159° South 496 571 33,400  Level FlightAware
11:59AM 30.7270 31.2300 159° South 496 571 33,400  Level FlightAware
12:00PM 30.6360 31.2710 159° South 496 571 33,400  Level FlightAware
12:00PM 30.5640 31.3030 159° South 496 571 33,400  Level FlightAware
12:01PM 30.4910 31.3360 159° South 496 571 33,400  Level FlightAware
12:04PM 30.2149 31.3881 171° South  Level Estimated
12:05PM 30.1219 31.4056 171° South  Level Estimated
12:06PM 30.1219 31.4056 319° Northwest  Level Estimated
12:07PM 30.1219 31.4056 319° Northwest  Level Estimated
12:08PM 30.1219 31.4056 319° Northwest  Level Estimated
12:09PM 30.1219 31.4056 319° Northwest  Level Estimated
12:10PM 30.1219 31.4056 319° Northwest  Level Estimated
12:11PM 30.1219 31.4056 319° Northwest  Level Estimated
12:12PM 30.1219 31.4056 319° Northwest  Level Estimated
12:13PM 30.1219 31.4056 319° Northwest  Level Estimated
12:14PM 30.1219 31.4056 319° Northwest  Level Estimated
12:15PM 30.1219 31.4056 319° Northwest  Level Estimated
12:16PM 30.1219 31.4056 319° Northwest  Level Estimated
12:17PM 30.1219 31.4056 319° Northwest  Level Estimated
12:18PM 30.1219 31.4056 319° Northwest  Level Estimated
12:19PM 30.1219 31.4056 319° Northwest  Level Estimated
12:20PM 30.1219 31.4056 319° Northwest  Level Estimated
12:21PM 30.1219 31.4056 319° Northwest  Level Estimated